createdAt,value
2023-01-11T00:00:27.432Z,11.18
2023-01-11T00:02:58.373Z,9.18
2023-01-11T00:05:25.257Z,9.60
2023-01-11T00:07:52.009Z,9.93
2023-01-11T00:10:19.744Z,8.68
2023-01-11T00:12:46.934Z,9.38
2023-01-11T00:15:14.537Z,9.45
2023-01-11T00:17:41.984Z,10.10
2023-01-11T00:20:10.600Z,9.00
2023-01-11T00:22:38.159Z,10.57
2023-01-11T00:25:05.724Z,11.20
2023-01-11T00:27:32.718Z,11.10
2023-01-11T00:29:59.639Z,12.18
2023-01-11T00:32:27.332Z,12.15
2023-01-11T00:34:54.513Z,10.75
2023-01-11T00:37:21.699Z,12.48
2023-01-11T00:39:48.685Z,11.82
2023-01-11T00:42:33.971Z,9.90
2023-01-11T00:45:18.951Z,11.38
2023-01-11T00:47:57.558Z,11.50
2023-01-11T00:50:25.556Z,8.90
2023-01-11T00:52:52.405Z,9.93
2023-01-11T00:55:19.277Z,8.30
2023-01-11T00:57:45.933Z,8.32
2023-01-11T01:00:13.208Z,8.18
2023-01-11T01:02:40.113Z,8.15
2023-01-11T01:05:07.326Z,8.05
2023-01-11T01:07:34.085Z,9.60
2023-01-11T01:10:01.024Z,7.25
2023-01-11T01:12:46.452Z,7.82
2023-01-11T01:15:13.328Z,7.78
2023-01-11T01:17:40.077Z,7.97
2023-01-11T01:20:07.723Z,8.15
2023-01-11T01:22:34.752Z,7.18
2023-01-11T01:25:01.923Z,5.90
2023-01-11T01:27:28.566Z,7.22
2023-01-11T01:29:55.274Z,6.88
2023-01-11T01:32:22.025Z,5.82
2023-01-11T01:34:48.789Z,6.90
2023-01-11T01:37:15.992Z,6.95
2023-01-11T01:39:42.793Z,5.38
2023-01-11T01:42:18.055Z,6.57
2023-01-11T01:45:06.794Z,6.15
2023-01-11T01:47:41.008Z,6.30
2023-01-11T01:50:29.386Z,5.60
2023-01-11T01:53:10.569Z,5.13
2023-01-11T01:55:41.041Z,5.15
2023-01-11T01:58:10.977Z,4.15
2023-01-11T02:00:43.004Z,3.22
2023-01-11T02:03:21.338Z,2.28
2023-01-11T02:05:48.596Z,2.28
2023-01-11T02:08:25.174Z,2.30
2023-01-11T02:10:53.396Z,3.08
2023-01-11T02:13:20.683Z,2.20
2023-01-11T02:16:07.869Z,1.88
2023-01-11T02:18:36.136Z,2.13
2023-01-11T02:21:17.516Z,1.10
2023-01-11T02:23:50.370Z,1.85
2023-01-11T02:26:16.900Z,1.58
2023-01-11T02:29:15.857Z,1.58
2023-01-11T02:32:21.181Z,1.90
2023-01-11T02:35:02.095Z,1.75
2023-01-11T02:37:41.559Z,2.55
2023-01-11T02:40:17.711Z,2.08
2023-01-11T02:43:09.870Z,2.78
2023-01-11T02:45:54.308Z,2.83
2023-01-11T02:48:46.492Z,2.03
2023-01-11T02:51:18.276Z,4.75
2023-01-11T02:53:49.610Z,2.05
2023-01-11T02:56:20.585Z,2.97
2023-01-11T02:58:50.540Z,2.80
2023-01-11T03:01:19.653Z,3.05
2023-01-11T03:03:46.506Z,3.63
2023-01-11T03:06:25.393Z,2.33
2023-01-11T03:08:57.871Z,3.05
2023-01-11T03:12:09.775Z,3.30
2023-01-11T03:15:17.085Z,4.43
2023-01-11T03:17:54.600Z,3.58
2023-01-11T03:20:28.492Z,3.70
2023-01-11T03:23:07.699Z,3.30
2023-01-11T03:25:45.134Z,3.60
2023-01-11T03:28:17.207Z,3.05
2023-01-11T03:31:18.063Z,3.83
2023-01-11T03:34:04.738Z,4.07
2023-01-11T03:36:41.731Z,3.20
2023-01-11T03:39:08.518Z,3.60
2023-01-11T03:41:38.179Z,4.97
2023-01-11T03:44:08.233Z,3.42
2023-01-11T03:46:39.158Z,3.53
2023-01-11T03:49:32.546Z,4.20
2023-01-11T03:52:00.797Z,4.38
2023-01-11T03:54:29.964Z,4.82
2023-01-11T03:57:17.002Z,3.40
2023-01-11T03:59:44.156Z,4.63
2023-01-11T04:02:19.105Z,5.38
2023-01-11T04:04:46.172Z,4.25
2023-01-11T04:07:13.067Z,4.40
2023-01-11T04:09:39.841Z,3.60
2023-01-11T04:12:06.844Z,3.45
2023-01-11T04:14:33.515Z,3.53
2023-01-11T04:17:00.343Z,3.15
2023-01-11T04:19:26.985Z,3.97
2023-01-11T04:21:53.911Z,3.22
2023-01-11T04:24:21.603Z,3.65
2023-01-11T04:26:48.354Z,3.85
2023-01-11T04:29:15.091Z,3.15
2023-01-11T04:31:42.029Z,2.97
2023-01-11T04:34:08.792Z,4.20
2023-01-11T04:36:35.555Z,3.90
2023-01-11T04:39:02.182Z,3.88
2023-01-11T04:41:47.904Z,2.70
2023-01-11T04:44:14.673Z,2.90
2023-01-11T04:46:41.404Z,3.38
2023-01-11T04:49:08.102Z,2.83
2023-01-11T04:51:34.808Z,2.83
2023-01-11T04:54:01.529Z,2.85
2023-01-11T04:56:29.411Z,3.80
2023-01-11T04:58:56.114Z,2.72
2023-01-11T05:01:22.949Z,2.70
2023-01-11T05:03:49.813Z,3.45
2023-01-11T05:06:16.668Z,2.60
2023-01-11T05:08:47.442Z,2.55
2023-01-11T05:11:15.482Z,2.45
2023-01-11T05:13:42.167Z,2.67
2023-01-11T05:16:20.122Z,3.80
2023-01-11T05:18:57.586Z,2.53
2023-01-11T05:21:26.117Z,4.38
2023-01-11T05:23:53.742Z,3.55
2023-01-11T05:26:27.912Z,3.10
2023-01-11T05:28:56.436Z,2.80
2023-01-11T05:31:23.227Z,2.28
2023-01-11T05:33:49.929Z,2.38
2023-01-11T05:36:18.896Z,5.30
2023-01-11T05:38:46.809Z,2.47
2023-01-11T05:41:13.842Z,2.67
2023-01-11T05:43:59.768Z,3.15
2023-01-11T05:46:27.886Z,2.63
2023-01-11T05:48:55.787Z,2.80
2023-01-11T05:51:22.757Z,2.53
2023-01-11T05:53:49.627Z,3.53
2023-01-11T05:56:16.484Z,3.97
2023-01-11T05:58:43.123Z,2.17
2023-01-11T06:01:12.247Z,2.70
2023-01-11T06:03:38.993Z,2.78
2023-01-11T06:06:06.081Z,2.40
2023-01-11T06:08:32.817Z,2.90
2023-01-11T06:10:59.642Z,3.88
2023-01-11T06:13:26.571Z,3.72
2023-01-11T06:16:04.184Z,2.25
2023-01-11T06:18:33.648Z,4.85
2023-01-11T06:21:01.400Z,2.63
2023-01-11T06:23:29.817Z,3.03
2023-01-11T06:25:57.211Z,3.65
2023-01-11T06:28:23.908Z,6.75
2023-01-11T06:30:54.976Z,2.78
2023-01-11T06:33:23.261Z,3.72
2023-01-11T06:35:49.908Z,3.35
2023-01-11T06:38:18.268Z,5.82
2023-01-11T06:40:52.342Z,4.28
2023-01-11T06:43:19.145Z,4.70
2023-01-11T06:45:45.847Z,3.83
2023-01-11T06:48:12.590Z,3.15
2023-01-11T06:50:39.327Z,3.38
2023-01-11T06:53:06.619Z,2.45
2023-01-11T06:55:33.412Z,2.83
2023-01-11T06:58:00.237Z,3.78
2023-01-11T07:00:27.116Z,2.90
2023-01-11T07:02:53.894Z,3.80
2023-01-11T07:05:20.636Z,3.40
2023-01-11T07:07:47.418Z,2.78
2023-01-11T07:10:15.975Z,3.58
2023-01-11T07:12:42.944Z,3.00
2023-01-11T07:15:10.932Z,3.95
2023-01-11T07:17:38.886Z,4.35
2023-01-11T07:20:07.345Z,10.43
2023-01-11T07:22:35.815Z,6.65
2023-01-11T07:25:04.083Z,3.78
2023-01-11T07:27:31.811Z,4.70
2023-01-11T07:30:01.755Z,4.68
2023-01-11T07:32:29.839Z,2.80
2023-01-11T07:34:57.274Z,3.80
2023-01-11T07:37:29.547Z,3.80
2023-01-11T07:39:57.179Z,4.45
2023-01-11T07:42:42.634Z,3.42
2023-01-11T07:45:10.556Z,4.72
2023-01-11T07:47:37.401Z,5.35
2023-01-11T07:50:04.717Z,3.42
2023-01-11T07:52:31.345Z,5.30
2023-01-11T07:55:02.498Z,3.25
2023-01-11T07:57:30.660Z,3.40
2023-01-11T07:59:57.377Z,3.95
2023-01-11T08:02:24.226Z,3.65
2023-01-11T08:04:51.042Z,2.95
2023-01-11T08:07:17.843Z,4.45
2023-01-11T08:09:44.594Z,7.38
2023-01-11T08:12:29.958Z,2.90
2023-01-11T08:14:57.514Z,3.00
2023-01-11T08:17:24.966Z,3.60
2023-01-11T08:19:52.518Z,3.42
2023-01-11T08:22:19.823Z,2.30
2023-01-11T08:24:47.292Z,2.20
2023-01-11T08:27:14.614Z,5.03
2023-01-11T08:29:44.579Z,10.00
2023-01-11T08:32:13.032Z,20.52
2023-01-11T08:34:40.718Z,13.18
2023-01-11T08:37:08.039Z,15.18
2023-01-11T08:39:35.558Z,23.05
2023-01-11T08:42:03.435Z,14.00
2023-01-11T08:44:34.693Z,9.23
2023-01-11T08:47:03.371Z,11.25
2023-01-11T08:49:30.948Z,11.00
2023-01-11T08:51:58.273Z,12.23
2023-01-11T08:54:25.716Z,12.35
2023-01-11T08:56:53.163Z,30.17
2023-01-11T08:59:22.235Z,13.85
2023-01-11T09:01:50.480Z,13.30
2023-01-11T09:04:24.705Z,15.98
2023-01-11T09:06:53.464Z,29.95
2023-01-11T09:09:20.896Z,10.88
2023-01-11T09:11:57.514Z,6.25
2023-01-11T09:14:26.936Z,8.85
2023-01-11T09:16:55.150Z,5.55
2023-01-11T09:19:22.511Z,4.93
2023-01-11T09:21:50.230Z,8.73
2023-01-11T09:24:17.921Z,6.78
2023-01-11T09:26:45.463Z,8.25
2023-01-11T09:29:13.118Z,6.45
2023-01-11T09:31:41.340Z,4.50
2023-01-11T09:34:11.216Z,6.50
2023-01-11T09:36:40.553Z,5.03
2023-01-11T09:39:11.888Z,4.63
2023-01-11T09:42:21.868Z,5.05
2023-01-11T09:44:56.980Z,4.65
2023-01-11T09:48:05.036Z,6.90
2023-01-11T09:50:40.243Z,8.23
2023-01-11T09:53:31.207Z,4.30
2023-01-11T09:56:01.717Z,21.80
2023-01-11T09:58:51.113Z,5.40
2023-01-11T10:01:31.726Z,4.13
2023-01-11T10:04:06.479Z,7.95
2023-01-11T10:06:48.439Z,6.22
2023-01-11T10:18:26.622Z,3.83
2023-01-11T10:19:19.606Z,3.45
2023-01-11T10:21:58.476Z,3.67
2023-01-11T10:24:33.817Z,3.45
2023-01-11T10:27:08.620Z,3.63
2023-01-11T10:29:52.129Z,3.15
2023-01-11T10:32:40.518Z,3.42
2023-01-11T10:35:30.267Z,4.00
2023-01-11T10:38:18.346Z,3.92
2023-01-11T10:41:08.706Z,3.72
2023-01-11T10:43:42.399Z,4.22
2023-01-11T10:46:17.905Z,2.97
2023-01-11T10:48:47.202Z,3.50
2023-01-11T10:51:37.120Z,3.25
2023-01-11T10:54:19.216Z,3.20
2023-01-11T10:57:03.075Z,3.50
2023-01-11T11:00:00.555Z,3.28
2023-01-11T11:02:50.279Z,3.70
2023-01-11T11:05:39.447Z,3.53
2023-01-11T11:08:29.527Z,3.33
2023-01-11T11:11:04.623Z,3.72
2023-01-11T11:13:36.217Z,3.80
2023-01-11T11:16:21.609Z,2.58
2023-01-11T11:19:00.958Z,4.60
2023-01-11T11:21:37.768Z,3.22
2023-01-11T11:24:16.337Z,4.53
2023-01-11T11:26:48.552Z,2.88
2023-01-11T11:29:24.555Z,3.63
2023-01-11T11:31:54.237Z,2.88
2023-01-11T11:34:28.728Z,2.63
2023-01-11T11:37:01.216Z,2.72
2023-01-11T11:39:34.539Z,2.78
2023-01-11T11:42:09.157Z,3.08
2023-01-11T11:44:39.456Z,2.97
2023-01-11T11:47:17.534Z,2.72
2023-01-11T11:49:48.940Z,2.45
2023-01-11T11:52:20.021Z,2.83
2023-01-11T11:54:59.576Z,2.65
2023-01-11T11:57:43.884Z,3.22
2023-01-11T12:00:34.737Z,3.20
2023-01-11T12:03:18.079Z,4.00
2023-01-11T12:05:53.230Z,4.03
2023-01-11T12:08:24.258Z,3.08
2023-01-11T12:10:59.897Z,2.22
2023-01-11T12:13:32.400Z,2.90
2023-01-11T12:18:54.321Z,2.75
2023-01-11T12:21:27.543Z,4.18
2023-01-11T12:24:21.021Z,1.90
2023-01-11T12:27:11.481Z,2.20
2023-01-11T12:30:02.517Z,2.13
2023-01-11T12:33:12.495Z,2.35
2023-01-11T12:35:57.309Z,2.45
2023-01-11T12:38:39.077Z,2.13
2023-01-11T12:41:45.616Z,2.45
2023-01-11T12:44:24.396Z,3.47
2023-01-11T12:47:00.625Z,2.65
2023-01-11T12:49:35.189Z,2.92
2023-01-11T12:52:29.502Z,3.17
2023-01-11T12:55:44.960Z,5.80
2023-01-11T12:58:30.468Z,8.20
2023-01-11T13:01:31.516Z,3.05
2023-01-11T13:04:12.158Z,2.85
2023-01-11T13:07:06.268Z,3.78
2023-01-11T13:10:01.677Z,3.83
2023-01-11T13:12:44.065Z,3.03
2023-01-11T13:15:19.896Z,3.17
2023-01-11T13:18:02.919Z,2.83
2023-01-11T13:21:03.964Z,3.08
2023-01-11T13:23:48.755Z,2.78
2023-01-11T13:26:42.499Z,5.00
2023-01-11T13:29:20.526Z,3.63
2023-01-11T13:31:50.626Z,3.10
2023-01-11T13:34:27.286Z,2.97
2023-01-11T13:37:01.309Z,5.30
2023-01-11T13:39:40.495Z,5.35
2023-01-11T13:42:31.794Z,3.22
2023-01-11T13:45:17.359Z,4.32
2023-01-11T13:47:55.509Z,2.50
2023-01-11T13:50:39.383Z,2.92
2023-01-11T13:53:34.101Z,2.42
2023-01-11T13:56:13.331Z,2.90
2023-01-11T13:59:15.414Z,2.92
2023-01-11T14:01:57.055Z,2.42
2023-01-11T14:04:58.488Z,2.45
2023-01-11T14:07:50.448Z,5.15
2023-01-11T14:10:38.637Z,2.80
2023-01-11T14:13:45.287Z,2.92
2023-01-11T14:16:22.977Z,1.92
2023-01-11T14:19:13.774Z,6.47
2023-01-11T14:21:59.914Z,3.58
2023-01-11T14:24:31.162Z,2.63
2023-01-11T14:27:16.607Z,4.30
2023-01-11T14:30:17.085Z,3.92
2023-01-11T14:32:51.625Z,2.75
2023-01-11T14:35:46.590Z,3.30
2023-01-11T14:38:27.435Z,4.47
2023-01-11T14:41:00.838Z,3.50
2023-01-11T14:43:48.917Z,5.22
2023-01-11T14:46:21.907Z,5.55
2023-01-11T14:49:10.821Z,5.20
2023-01-11T14:51:59.884Z,3.67
2023-01-11T14:54:50.971Z,3.90
2023-01-11T14:57:41.876Z,2.20
2023-01-11T15:00:21.056Z,3.45
2023-01-11T15:03:03.435Z,2.92
2023-01-11T15:05:34.321Z,2.70
2023-01-11T15:08:11.916Z,3.55
2023-01-11T15:11:02.155Z,2.28
2023-01-11T15:13:33.897Z,3.10
2023-01-11T15:16:27.329Z,3.10
2023-01-11T15:18:57.314Z,5.35
2023-01-11T15:21:28.937Z,2.90
2023-01-11T15:24:01.927Z,4.57
2023-01-11T15:26:32.931Z,3.03
2023-01-11T15:29:04.011Z,2.90
2023-01-11T15:34:29.387Z,3.78
2023-01-11T15:37:09.757Z,2.75
2023-01-11T15:40:03.873Z,3.17
2023-01-11T15:42:48.623Z,2.40
2023-01-11T15:46:13.977Z,3.15
2023-01-11T15:49:08.257Z,3.65
2023-01-11T15:52:03.956Z,2.75
2023-01-11T15:54:43.217Z,3.80
2023-01-11T15:57:41.163Z,3.85
2023-01-11T16:00:48.164Z,2.40
2023-01-11T16:03:55.504Z,2.95
2023-01-11T16:06:35.173Z,3.25
2023-01-11T16:09:46.175Z,3.42
2023-01-11T16:15:18.515Z,2.60
2023-01-11T16:17:49.141Z,4.32
2023-01-11T16:20:22.136Z,2.55
2023-01-11T16:23:06.513Z,2.42
2023-01-11T16:25:41.898Z,3.85
2023-01-11T16:28:18.641Z,3.72
2023-01-11T16:30:49.615Z,2.28
2023-01-11T16:33:29.774Z,4.40
2023-01-11T16:36:29.063Z,2.60
2023-01-11T16:39:13.748Z,3.58
2023-01-11T16:41:48.935Z,2.95
2023-01-11T16:44:29.986Z,2.88
2023-01-11T16:47:28.278Z,3.50
2023-01-11T16:50:23.647Z,2.35
2023-01-11T16:53:05.813Z,10.50
2023-01-11T16:55:37.696Z,7.07
2023-01-11T16:58:27.583Z,5.25
2023-01-11T17:01:06.605Z,9.98
2023-01-11T17:06:12.219Z,10.98
2023-01-11T17:11:17.750Z,9.57
2023-01-11T17:14:19.433Z,8.65
2023-01-11T17:16:55.368Z,13.02
2023-01-11T17:19:32.778Z,15.30
2023-01-11T17:22:09.897Z,18.27
2023-01-11T17:24:43.941Z,11.25
2023-01-11T17:27:29.038Z,12.15
2023-01-11T17:30:00.176Z,3.97
2023-01-11T17:32:42.796Z,3.65
2023-01-11T17:35:21.898Z,11.45
2023-01-11T17:40:32.686Z,7.60
2023-01-11T17:43:32.277Z,6.10
2023-01-11T17:46:03.978Z,5.25
2023-01-11T17:48:34.051Z,7.90
2023-01-11T17:51:05.256Z,3.53
2023-01-11T17:53:36.421Z,5.65
2023-01-11T17:56:08.508Z,4.00
2023-01-11T17:58:39.468Z,4.50
2023-01-11T18:01:16.467Z,4.93
2023-01-11T18:03:55.718Z,3.40
2023-01-11T18:06:38.457Z,2.70
2023-01-11T18:09:19.621Z,4.57
2023-01-11T18:11:49.646Z,4.90
2023-01-11T18:14:28.545Z,3.33
2023-01-11T18:17:05.586Z,4.72
2023-01-11T18:19:43.902Z,2.60
2023-01-11T18:22:59.016Z,3.92
2023-01-11T18:25:31.151Z,2.75
2023-01-11T18:28:23.825Z,2.42
2023-01-11T18:30:59.652Z,2.17
2023-01-11T18:33:33.895Z,3.55
2023-01-11T18:36:07.928Z,3.83
2023-01-11T18:38:38.564Z,3.33
2023-01-11T18:41:28.146Z,3.40
2023-01-11T18:44:00.527Z,3.75
2023-01-11T18:46:31.578Z,4.75
2023-01-11T18:49:01.423Z,3.10
2023-01-11T18:51:35.985Z,3.40
2023-01-11T18:54:07.987Z,3.83
2023-01-11T18:56:37.868Z,4.90
2023-01-11T18:59:07.648Z,5.80
2023-01-11T19:01:52.701Z,5.47
2023-01-11T19:04:27.698Z,6.65
2023-01-11T19:06:57.307Z,4.03
2023-01-11T19:09:26.620Z,4.53
2023-01-11T19:11:56.025Z,3.75
2023-01-11T19:14:27.871Z,4.15
2023-01-11T19:16:57.331Z,6.43
2023-01-11T19:19:26.609Z,6.65
2023-01-11T19:21:58.605Z,4.65
2023-01-11T19:24:27.943Z,8.50
2023-01-11T19:26:57.255Z,8.57
2023-01-11T19:29:26.773Z,6.07
2023-01-11T19:31:58.579Z,3.97
2023-01-11T19:34:30.437Z,5.95
2023-01-11T19:36:59.689Z,13.38
2023-01-11T19:39:29.564Z,5.88
2023-01-11T19:42:04.216Z,4.97
2023-01-11T19:44:37.125Z,5.97
2023-01-11T19:49:44.510Z,3.50
2023-01-11T19:52:20.078Z,4.82
2023-01-11T19:54:53.310Z,4.13
2023-01-11T19:57:26.165Z,3.65
2023-01-11T20:02:24.388Z,4.03
2023-01-11T20:04:54.011Z,3.20
2023-01-11T20:07:24.963Z,2.50
2023-01-11T20:09:54.304Z,4.18
2023-01-11T20:12:23.571Z,3.00
2023-01-11T20:14:56.932Z,5.55
2023-01-11T20:17:30.068Z,2.78
2023-01-11T20:19:59.534Z,4.05
2023-01-11T20:22:29.732Z,4.63
2023-01-11T20:25:00.149Z,3.33
2023-01-11T20:27:29.677Z,3.65
2023-01-11T20:30:00.036Z,2.65
2023-01-11T20:32:41.430Z,2.42
2023-01-11T20:35:12.937Z,2.83
2023-01-11T20:37:49.324Z,3.67
2023-01-11T20:40:20.106Z,7.57
2023-01-11T20:42:49.438Z,3.78
2023-01-11T20:45:20.053Z,3.72
2023-01-11T20:47:49.241Z,3.15
2023-01-11T20:50:18.571Z,4.53
2023-01-11T20:52:50.690Z,3.95
2023-01-11T20:55:20.444Z,3.08
2023-01-11T20:57:50.866Z,3.25
2023-01-11T21:00:21.879Z,2.67
2023-01-11T21:02:52.644Z,3.75
2023-01-11T21:05:21.976Z,2.78
2023-01-11T21:07:54.405Z,3.25
2023-01-11T21:10:23.960Z,4.28
2023-01-11T21:12:55.302Z,4.28
2023-01-11T21:15:25.335Z,3.05
2023-01-11T21:17:55.328Z,4.43
2023-01-11T21:20:24.623Z,7.25
2023-01-11T21:22:53.966Z,13.73
2023-01-11T21:25:24.164Z,12.15
2023-01-11T21:27:54.708Z,15.68
2023-01-11T21:30:24.531Z,9.48
2023-01-11T21:32:55.999Z,8.50
2023-01-11T21:35:25.702Z,6.43
2023-01-11T21:37:55.069Z,4.47
2023-01-11T21:40:24.559Z,5.22
2023-01-11T21:42:56.652Z,5.15
2023-01-11T21:45:26.255Z,4.32
2023-01-11T21:47:55.339Z,4.53
2023-01-11T21:50:25.365Z,3.70
2023-01-11T21:52:56.225Z,4.32
2023-01-11T21:55:25.447Z,4.25
2023-01-11T21:57:54.830Z,3.70
2023-01-11T22:00:24.163Z,4.10
2023-01-11T22:02:53.285Z,3.35
2023-01-11T22:05:22.106Z,3.58
2023-01-11T22:07:51.348Z,4.15
2023-01-11T22:10:20.314Z,3.28
2023-01-11T22:12:48.651Z,3.97
2023-01-11T22:15:17.139Z,3.05
2023-01-11T22:17:45.726Z,2.80
2023-01-11T22:20:16.084Z,2.65
2023-01-11T22:22:44.942Z,2.70
2023-01-11T22:25:12.979Z,2.80
2023-01-11T22:27:42.241Z,2.83
2023-01-11T22:30:10.759Z,2.97
2023-01-11T22:32:38.203Z,2.75
2023-01-11T22:35:05.838Z,3.63
2023-01-11T22:37:32.850Z,3.47
2023-01-11T22:40:01.678Z,3.20
2023-01-11T22:42:28.715Z,4.18
2023-01-11T22:44:56.260Z,2.50
2023-01-11T22:47:23.012Z,2.95
2023-01-11T22:49:54.421Z,4.63
2023-01-11T22:52:21.860Z,3.00
2023-01-11T22:54:49.127Z,3.10
2023-01-11T22:57:16.025Z,2.60
2023-01-11T22:59:43.193Z,3.20
2023-01-11T23:02:10.076Z,2.92
2023-01-11T23:04:36.915Z,3.38
2023-01-11T23:07:04.800Z,4.57
2023-01-11T23:09:31.795Z,2.90
2023-01-11T23:12:17.283Z,3.42
2023-01-11T23:17:11.418Z,3.65
2023-01-11T23:19:40.369Z,3.03
2023-01-11T23:22:08.762Z,2.63
2023-01-11T23:24:36.973Z,3.75
2023-01-11T23:27:04.726Z,3.47
2023-01-11T23:29:31.634Z,3.33
2023-01-11T23:31:58.456Z,2.35
2023-01-11T23:34:25.251Z,3.00
2023-01-11T23:36:52.162Z,3.65
2023-01-11T23:39:19.371Z,3.03
2023-01-11T23:42:04.913Z,2.30
2023-01-11T23:44:31.867Z,3.85
2023-01-11T23:47:17.691Z,3.28
2023-01-11T23:49:45.523Z,3.63
2023-01-11T23:52:12.335Z,3.55
2023-01-11T23:54:39.146Z,3.53
2023-01-11T23:57:06.393Z,3.78
2023-01-11T23:59:33.598Z,4.13
